sensor_id;sensor_type;location;lat;lon;timestamp;P1;durP1;ratioP1;P2;durP2;ratioP2
1154;SDS011;566;48.414;9.118;2022-11-15T00:00:46;5.05;;;2.22;;
1154;SDS011;566;48.414;9.118;2022-11-15T00:03:18;5.63;;;1.90;;
1154;SDS011;566;48.414;9.118;2022-11-15T00:05:48;5.43;;;1.88;;
1154;SDS011;566;48.414;9.118;2022-11-15T00:08:14;5.07;;;2.25;;
1154;SDS011;566;48.414;9.118;2022-11-15T00:10:40;4.35;;;1.88;;
1154;SDS011;566;48.414;9.118;2022-11-15T00:13:07;5.88;;;2.20;;
1154;SDS011;566;48.414;9.118;2022-11-15T00:15:40;4.55;;;2.17;;
1154;SDS011;566;48.414;9.118;2022-11-15T00:18:09;6.15;;;2.00;;
1154;SDS011;566;48.414;9.118;2022-11-15T00:20:37;4.20;;;2.10;;
1154;SDS011;566;48.414;9.118;2022-11-15T00:23:03;5.85;;;2.00;;
1154;SDS011;566;48.414;9.118;2022-11-15T00:25:29;3.47;;;2.00;;
1154;SDS011;566;48.414;9.118;2022-11-15T00:27:56;4.65;;;2.00;;
1154;SDS011;566;48.414;9.118;2022-11-15T00:30:22;5.05;;;2.20;;
1154;SDS011;566;48.414;9.118;2022-11-15T00:32:48;4.55;;;2.13;;
1154;SDS011;566;48.414;9.118;2022-11-15T00:35:14;7.82;;;2.40;;
1154;SDS011;566;48.414;9.118;2022-11-15T00:37:40;7.45;;;2.20;;
1154;SDS011;566;48.414;9.118;2022-11-15T00:40:06;6.28;;;2.10;;
1154;SDS011;566;48.414;9.118;2022-11-15T00:42:32;5.90;;;2.30;;
1154;SDS011;566;48.414;9.118;2022-11-15T00:44:58;7.20;;;2.67;;
1154;SDS011;566;48.414;9.118;2022-11-15T00:47:23;4.28;;;2.17;;
1154;SDS011;566;48.414;9.118;2022-11-15T00:49:49;6.05;;;2.42;;
1154;SDS011;566;48.414;9.118;2022-11-15T00:52:15;7.10;;;2.60;;
1154;SDS011;566;48.414;9.118;2022-11-15T00:54:40;5.88;;;2.15;;
1154;SDS011;566;48.414;9.118;2022-11-15T00:57:06;5.07;;;2.17;;
1154;SDS011;566;48.414;9.118;2022-11-15T00:59:32;6.30;;;2.45;;
1154;SDS011;566;48.414;9.118;2022-11-15T01:01:58;5.32;;;2.40;;
1154;SDS011;566;48.414;9.118;2022-11-15T01:04:23;5.90;;;2.70;;
1154;SDS011;566;48.414;9.118;2022-11-15T01:06:49;4.43;;;2.20;;
1154;SDS011;566;48.414;9.118;2022-11-15T01:09:15;4.63;;;2.15;;
1154;SDS011;566;48.414;9.118;2022-11-15T01:11:40;7.03;;;2.17;;
1154;SDS011;566;48.414;9.118;2022-11-15T01:14:06;4.55;;;2.03;;
1154;SDS011;566;48.414;9.118;2022-11-15T01:16:32;4.57;;;2.25;;
1154;SDS011;566;48.414;9.118;2022-11-15T01:18:58;4.97;;;2.03;;
1154;SDS011;566;48.414;9.118;2022-11-15T01:21:24;6.03;;;2.20;;
1154;SDS011;566;48.414;9.118;2022-11-15T01:23:59;4.57;;;2.38;;
1154;SDS011;566;48.414;9.118;2022-11-15T01:26:24;4.13;;;2.00;;
1154;SDS011;566;48.414;9.118;2022-11-15T01:28:50;5.20;;;2.20;;
1154;SDS011;566;48.414;9.118;2022-11-15T01:31:20;6.20;;;2.17;;
1154;SDS011;566;48.414;9.118;2022-11-15T01:33:46;6.13;;;2.17;;
1154;SDS011;566;48.414;9.118;2022-11-15T01:36:13;5.97;;;2.25;;
1154;SDS011;566;48.414;9.118;2022-11-15T01:38:46;4.53;;;2.00;;
1154;SDS011;566;48.414;9.118;2022-11-15T01:41:18;4.72;;;2.13;;
1154;SDS011;566;48.414;9.118;2022-11-15T01:43:55;5.65;;;2.10;;
1154;SDS011;566;48.414;9.118;2022-11-15T01:48:48;5.03;;;2.10;;
1154;SDS011;566;48.414;9.118;2022-11-15T01:51:16;6.00;;;2.00;;
1154;SDS011;566;48.414;9.118;2022-11-15T01:53:45;8.68;;;2.00;;
1154;SDS011;566;48.414;9.118;2022-11-15T01:56:16;6.25;;;2.00;;
1154;SDS011;566;48.414;9.118;2022-11-15T01:58:44;5.45;;;1.98;;
1154;SDS011;566;48.414;9.118;2022-11-15T02:01:11;5.07;;;2.22;;
1154;SDS011;566;48.414;9.118;2022-11-15T02:03:40;5.32;;;2.20;;
1154;SDS011;566;48.414;9.118;2022-11-15T02:06:23;4.13;;;1.90;;
1154;SDS011;566;48.414;9.118;2022-11-15T02:08:49;6.55;;;2.67;;
1154;SDS011;566;48.414;9.118;2022-11-15T02:11:15;5.70;;;2.33;;
1154;SDS011;566;48.414;9.118;2022-11-15T02:13:44;4.80;;;2.08;;
1154;SDS011;566;48.414;9.118;2022-11-15T02:16:15;5.75;;;2.22;;
1154;SDS011;566;48.414;9.118;2022-11-15T02:18:59;4.32;;;1.77;;
1154;SDS011;566;48.414;9.118;2022-11-15T02:30:04;6.68;;;2.15;;
1154;SDS011;566;48.414;9.118;2022-11-15T02:38:16;6.68;;;2.00;;
1154;SDS011;566;48.414;9.118;2022-11-15T02:41:06;6.05;;;1.92;;
1154;SDS011;566;48.414;9.118;2022-11-15T02:49:25;5.35;;;1.70;;
1154;SDS011;566;48.414;9.118;2022-11-15T02:51:54;4.78;;;1.88;;
1154;SDS011;566;48.414;9.118;2022-11-15T02:54:22;6.78;;;1.98;;
1154;SDS011;566;48.414;9.118;2022-11-15T02:56:49;4.60;;;1.70;;
1154;SDS011;566;48.414;9.118;2022-11-15T03:07:37;4.25;;;1.88;;
1154;SDS011;566;48.414;9.118;2022-11-15T03:15:47;4.13;;;1.80;;
1154;SDS011;566;48.414;9.118;2022-11-15T03:18:38;5.72;;;1.95;;
1154;SDS011;566;48.414;9.118;2022-11-15T03:21:09;4.45;;;1.80;;
1154;SDS011;566;48.414;9.118;2022-11-15T03:23:37;3.92;;;1.98;;
1154;SDS011;566;48.414;9.118;2022-11-15T03:26:05;5.90;;;1.58;;
1154;SDS011;566;48.414;9.118;2022-11-15T03:28:38;4.07;;;2.10;;
1154;SDS011;566;48.414;9.118;2022-11-15T03:31:11;6.03;;;1.95;;
1154;SDS011;566;48.414;9.118;2022-11-15T03:33:59;3.53;;;1.60;;
1154;SDS011;566;48.414;9.118;2022-11-15T03:36:29;4.75;;;1.75;;
1154;SDS011;566;48.414;9.118;2022-11-15T03:38:59;5.85;;;1.70;;
1154;SDS011;566;48.414;9.118;2022-11-15T03:41:29;4.47;;;1.80;;
1154;SDS011;566;48.414;9.118;2022-11-15T03:46:31;6.03;;;1.88;;
1154;SDS011;566;48.414;9.118;2022-11-15T03:49:04;3.53;;;1.50;;
1154;SDS011;566;48.414;9.118;2022-11-15T03:51:42;4.20;;;1.90;;
1154;SDS011;566;48.414;9.118;2022-11-15T03:54:07;5.90;;;1.90;;
1154;SDS011;566;48.414;9.118;2022-11-15T03:56:33;5.97;;;2.10;;
1154;SDS011;566;48.414;9.118;2022-11-15T03:59:02;5.95;;;1.73;;
1154;SDS011;566;48.414;9.118;2022-11-15T04:01:27;10.13;;;2.00;;
1154;SDS011;566;48.414;9.118;2022-11-15T04:03:53;5.55;;;2.17;;
1154;SDS011;566;48.414;9.118;2022-11-15T04:06:18;4.22;;;1.92;;
1154;SDS011;566;48.414;9.118;2022-11-15T04:08:47;4.63;;;1.90;;
1154;SDS011;566;48.414;9.118;2022-11-15T04:11:18;5.13;;;1.90;;
1154;SDS011;566;48.414;9.118;2022-11-15T04:13:44;6.00;;;1.90;;
1154;SDS011;566;48.414;9.118;2022-11-15T04:16:09;4.55;;;1.75;;
1154;SDS011;566;48.414;9.118;2022-11-15T04:18:35;6.10;;;2.20;;
1154;SDS011;566;48.414;9.118;2022-11-15T04:21:01;3.40;;;1.60;;
1154;SDS011;566;48.414;9.118;2022-11-15T04:23:45;5.35;;;1.70;;
1154;SDS011;566;48.414;9.118;2022-11-15T04:26:17;4.55;;;1.75;;
1154;SDS011;566;48.414;9.118;2022-11-15T04:28:45;4.95;;;2.30;;
1154;SDS011;566;48.414;9.118;2022-11-15T04:31:29;3.40;;;1.70;;
1154;SDS011;566;48.414;9.118;2022-11-15T04:33:58;4.80;;;1.73;;
1154;SDS011;566;48.414;9.118;2022-11-15T04:36:24;4.15;;;1.77;;
1154;SDS011;566;48.414;9.118;2022-11-15T04:39:08;5.18;;;1.98;;
1154;SDS011;566;48.414;9.118;2022-11-15T04:41:34;4.13;;;1.80;;
1154;SDS011;566;48.414;9.118;2022-11-15T04:44:00;4.53;;;1.75;;
1154;SDS011;566;48.414;9.118;2022-11-15T04:46:27;4.30;;;1.80;;
1154;SDS011;566;48.414;9.118;2022-11-15T04:48:53;5.00;;;1.77;;
1154;SDS011;566;48.414;9.118;2022-11-15T04:51:19;4.32;;;1.73;;
1154;SDS011;566;48.414;9.118;2022-11-15T04:53:45;5.53;;;2.10;;
1154;SDS011;566;48.414;9.118;2022-11-15T04:56:11;4.60;;;2.00;;
1154;SDS011;566;48.414;9.118;2022-11-15T04:58:37;3.58;;;1.67;;
1154;SDS011;566;48.414;9.118;2022-11-15T05:01:06;3.63;;;1.60;;
1154;SDS011;566;48.414;9.118;2022-11-15T05:03:32;4.55;;;1.73;;
1154;SDS011;566;48.414;9.118;2022-11-15T05:06:20;3.33;;;1.67;;
1154;SDS011;566;48.414;9.118;2022-11-15T05:08:46;4.22;;;1.70;;
1154;SDS011;566;48.414;9.118;2022-11-15T05:11:11;4.20;;;2.22;;
1154;SDS011;566;48.414;9.118;2022-11-15T05:13:37;4.28;;;1.70;;
1154;SDS011;566;48.414;9.118;2022-11-15T05:16:03;4.32;;;1.60;;
1154;SDS011;566;48.414;9.118;2022-11-15T05:18:29;4.75;;;1.77;;
1154;SDS011;566;48.414;9.118;2022-11-15T05:20:54;2.40;;;1.40;;
1154;SDS011;566;48.414;9.118;2022-11-15T05:23:20;3.42;;;1.42;;
1154;SDS011;566;48.414;9.118;2022-11-15T05:25:47;5.78;;;1.88;;
1154;SDS011;566;48.414;9.118;2022-11-15T05:28:13;4.03;;;1.70;;
1154;SDS011;566;48.414;9.118;2022-11-15T05:30:39;3.40;;;1.60;;
1154;SDS011;566;48.414;9.118;2022-11-15T05:33:04;5.50;;;1.90;;
1154;SDS011;566;48.414;9.118;2022-11-15T05:35:31;3.97;;;1.70;;
1154;SDS011;566;48.414;9.118;2022-11-15T05:38:05;4.55;;;2.05;;
1154;SDS011;566;48.414;9.118;2022-11-15T05:40:31;2.95;;;1.40;;
1154;SDS011;566;48.414;9.118;2022-11-15T05:42:59;4.45;;;2.08;;
1154;SDS011;566;48.414;9.118;2022-11-15T05:45:26;3.15;;;1.60;;
1154;SDS011;566;48.414;9.118;2022-11-15T05:47:59;5.90;;;1.83;;
1154;SDS011;566;48.414;9.118;2022-11-15T05:50:31;3.80;;;1.50;;
1154;SDS011;566;48.414;9.118;2022-11-15T05:52:57;4.03;;;1.55;;
1154;SDS011;566;48.414;9.118;2022-11-15T05:55:25;4.25;;;1.50;;
1154;SDS011;566;48.414;9.118;2022-11-15T05:57:51;4.47;;;1.50;;
1154;SDS011;566;48.414;9.118;2022-11-15T06:00:16;3.88;;;1.60;;
1154;SDS011;566;48.414;9.118;2022-11-15T06:02:42;4.75;;;1.73;;
1154;SDS011;566;48.414;9.118;2022-11-15T06:05:08;6.50;;;1.92;;
1154;SDS011;566;48.414;9.118;2022-11-15T06:07:34;6.32;;;1.67;;
1154;SDS011;566;48.414;9.118;2022-11-15T06:10:03;6.07;;;2.90;;
1154;SDS011;566;48.414;9.118;2022-11-15T06:12:40;4.78;;;2.00;;
1154;SDS011;566;48.414;9.118;2022-11-15T06:15:06;5.57;;;2.25;;
1154;SDS011;566;48.414;9.118;2022-11-15T06:17:32;5.53;;;2.30;;
1154;SDS011;566;48.414;9.118;2022-11-15T06:19:58;6.35;;;2.00;;
1154;SDS011;566;48.414;9.118;2022-11-15T06:22:23;5.50;;;2.22;;
1154;SDS011;566;48.414;9.118;2022-11-15T06:24:49;7.53;;;2.42;;
1154;SDS011;566;48.414;9.118;2022-11-15T06:27:15;7.40;;;2.22;;
1154;SDS011;566;48.414;9.118;2022-11-15T06:29:40;4.82;;;2.20;;
1154;SDS011;566;48.414;9.118;2022-11-15T06:32:06;5.47;;;2.13;;
1154;SDS011;566;48.414;9.118;2022-11-15T06:34:32;4.10;;;1.95;;
1154;SDS011;566;48.414;9.118;2022-11-15T06:36:57;4.80;;;2.20;;
1154;SDS011;566;48.414;9.118;2022-11-15T06:39:23;4.90;;;2.50;;
1154;SDS011;566;48.414;9.118;2022-11-15T06:41:48;8.52;;;2.20;;
1154;SDS011;566;48.414;9.118;2022-11-15T06:44:14;4.30;;;2.30;;
1154;SDS011;566;48.414;9.118;2022-11-15T06:46:41;5.47;;;2.40;;
1154;SDS011;566;48.414;9.118;2022-11-15T06:49:07;5.38;;;2.30;;
1154;SDS011;566;48.414;9.118;2022-11-15T06:51:32;5.40;;;2.30;;
1154;SDS011;566;48.414;9.118;2022-11-15T06:53:58;5.72;;;2.88;;
1154;SDS011;566;48.414;9.118;2022-11-15T06:56:24;9.93;;;2.88;;
1154;SDS011;566;48.414;9.118;2022-11-15T06:58:49;6.38;;;2.70;;
1154;SDS011;566;48.414;9.118;2022-11-15T07:01:15;5.22;;;2.53;;
1154;SDS011;566;48.414;9.118;2022-11-15T07:03:42;4.90;;;2.65;;
1154;SDS011;566;48.414;9.118;2022-11-15T07:06:08;5.22;;;2.63;;
1154;SDS011;566;48.414;9.118;2022-11-15T07:08:35;8.07;;;2.60;;
1154;SDS011;566;48.414;9.118;2022-11-15T07:11:01;5.00;;;2.67;;
1154;SDS011;566;48.414;9.118;2022-11-15T07:13:29;8.02;;;2.75;;
1154;SDS011;566;48.414;9.118;2022-11-15T07:15:58;5.82;;;2.72;;
1154;SDS011;566;48.414;9.118;2022-11-15T07:18:26;5.18;;;2.72;;
1154;SDS011;566;48.414;9.118;2022-11-15T07:20:52;6.82;;;3.00;;
1154;SDS011;566;48.414;9.118;2022-11-15T07:23:18;6.57;;;3.22;;
1154;SDS011;566;48.414;9.118;2022-11-15T07:25:43;13.43;;;3.00;;
1154;SDS011;566;48.414;9.118;2022-11-15T07:28:09;5.97;;;3.08;;
1154;SDS011;566;48.414;9.118;2022-11-15T07:30:35;7.82;;;2.97;;
1154;SDS011;566;48.414;9.118;2022-11-15T07:33:03;8.60;;;3.60;;
1154;SDS011;566;48.414;9.118;2022-11-15T07:35:29;7.55;;;4.57;;
1154;SDS011;566;48.414;9.118;2022-11-15T07:38:01;9.32;;;5.00;;
1154;SDS011;566;48.414;9.118;2022-11-15T07:40:28;15.02;;;6.72;;
1154;SDS011;566;48.414;9.118;2022-11-15T07:43:01;6.80;;;2.60;;
1154;SDS011;566;48.414;9.118;2022-11-15T07:45:28;6.70;;;3.70;;
1154;SDS011;566;48.414;9.118;2022-11-15T07:47:54;6.80;;;3.08;;
1154;SDS011;566;48.414;9.118;2022-11-15T07:50:21;8.32;;;4.72;;
1154;SDS011;566;48.414;9.118;2022-11-15T07:52:52;6.68;;;2.60;;
1154;SDS011;566;48.414;9.118;2022-11-15T07:55:22;5.85;;;3.38;;
1154;SDS011;566;48.414;9.118;2022-11-15T07:57:51;14.55;;;7.65;;
1154;SDS011;566;48.414;9.118;2022-11-15T08:00:17;26.50;;;12.00;;
1154;SDS011;566;48.414;9.118;2022-11-15T08:02:42;29.38;;;14.25;;
1154;SDS011;566;48.414;9.118;2022-11-15T08:05:08;17.17;;;8.93;;
1154;SDS011;566;48.414;9.118;2022-11-15T08:07:36;6.40;;;2.70;;
1154;SDS011;566;48.414;9.118;2022-11-15T08:10:03;6.93;;;2.80;;
1154;SDS011;566;48.414;9.118;2022-11-15T08:12:33;4.20;;;2.30;;
1154;SDS011;566;48.414;9.118;2022-11-15T08:14:59;4.35;;;2.28;;
1154;SDS011;566;48.414;9.118;2022-11-15T08:17:24;6.22;;;2.85;;
1154;SDS011;566;48.414;9.118;2022-11-15T08:19:50;5.50;;;2.20;;
1154;SDS011;566;48.414;9.118;2022-11-15T08:22:16;4.75;;;2.15;;
1154;SDS011;566;48.414;9.118;2022-11-15T08:24:42;6.05;;;3.00;;
1154;SDS011;566;48.414;9.118;2022-11-15T08:27:08;5.45;;;2.42;;
1154;SDS011;566;48.414;9.118;2022-11-15T08:29:40;5.30;;;2.55;;
1154;SDS011;566;48.414;9.118;2022-11-15T08:32:07;5.63;;;2.78;;
1154;SDS011;566;48.414;9.118;2022-11-15T08:34:32;5.65;;;2.60;;
1154;SDS011;566;48.414;9.118;2022-11-15T08:36:58;6.63;;;2.80;;
1154;SDS011;566;48.414;9.118;2022-11-15T08:39:24;12.38;;;3.05;;
1154;SDS011;566;48.414;9.118;2022-11-15T08:41:49;7.38;;;3.40;;
1154;SDS011;566;48.414;9.118;2022-11-15T08:44:15;6.18;;;3.03;;
1154;SDS011;566;48.414;9.118;2022-11-15T08:46:40;8.30;;;2.97;;
1154;SDS011;566;48.414;9.118;2022-11-15T08:49:06;7.68;;;4.68;;
1154;SDS011;566;48.414;9.118;2022-11-15T08:51:32;7.45;;;2.58;;
1154;SDS011;566;48.414;9.118;2022-11-15T08:53:57;6.57;;;2.60;;
1154;SDS011;566;48.414;9.118;2022-11-15T08:56:23;5.82;;;2.83;;
1154;SDS011;566;48.414;9.118;2022-11-15T08:58:49;5.95;;;2.85;;
1154;SDS011;566;48.414;9.118;2022-11-15T09:01:18;4.32;;;2.00;;
1154;SDS011;566;48.414;9.118;2022-11-15T09:03:45;8.40;;;4.70;;
1154;SDS011;566;48.414;9.118;2022-11-15T09:06:11;6.57;;;2.40;;
1154;SDS011;566;48.414;9.118;2022-11-15T09:08:37;7.05;;;3.72;;
1154;SDS011;566;48.414;9.118;2022-11-15T09:11:03;11.80;;;6.78;;
1154;SDS011;566;48.414;9.118;2022-11-15T09:13:29;8.93;;;4.65;;
1154;SDS011;566;48.414;9.118;2022-11-15T09:15:59;14.43;;;8.82;;
1154;SDS011;566;48.414;9.118;2022-11-15T09:18:25;11.65;;;7.60;;
1154;SDS011;566;48.414;9.118;2022-11-15T09:20:55;9.20;;;5.10;;
1154;SDS011;566;48.414;9.118;2022-11-15T09:23:22;9.82;;;5.88;;
1154;SDS011;566;48.414;9.118;2022-11-15T09:25:48;8.75;;;5.10;;
1154;SDS011;566;48.414;9.118;2022-11-15T09:28:14;7.10;;;4.20;;
1154;SDS011;566;48.414;9.118;2022-11-15T09:30:40;7.63;;;3.08;;
1154;SDS011;566;48.414;9.118;2022-11-15T09:33:07;6.50;;;3.72;;
1154;SDS011;566;48.414;9.118;2022-11-15T09:35:33;9.23;;;4.85;;
1154;SDS011;566;48.414;9.118;2022-11-15T09:37:59;8.88;;;4.70;;
1154;SDS011;566;48.414;9.118;2022-11-15T09:40:25;6.78;;;3.55;;
1154;SDS011;566;48.414;9.118;2022-11-15T09:42:58;6.57;;;3.20;;
1154;SDS011;566;48.414;9.118;2022-11-15T09:53:52;7.40;;;2.13;;
1154;SDS011;566;48.414;9.118;2022-11-15T09:56:37;9.45;;;4.55;;
1154;SDS011;566;48.414;9.118;2022-11-15T10:04:26;11.30;;;5.43;;
1154;SDS011;566;48.414;9.118;2022-11-15T10:07:05;10.02;;;5.50;;
1154;SDS011;566;48.414;9.118;2022-11-15T10:09:51;9.95;;;5.22;;
1154;SDS011;566;48.414;9.118;2022-11-15T10:12:34;11.88;;;5.35;;
1154;SDS011;566;48.414;9.118;2022-11-15T10:15:03;13.20;;;6.50;;
1154;SDS011;566;48.414;9.118;2022-11-15T10:20:36;13.25;;;6.65;;
1154;SDS011;566;48.414;9.118;2022-11-15T10:23:17;18.08;;;10.20;;
1154;SDS011;566;48.414;9.118;2022-11-15T10:25:45;17.10;;;8.95;;
1154;SDS011;566;48.414;9.118;2022-11-15T10:30:48;20.42;;;11.02;;
1154;SDS011;566;48.414;9.118;2022-11-15T10:41:19;19.48;;;9.57;;
1154;SDS011;566;48.414;9.118;2022-11-15T10:46:33;13.90;;;5.82;;
1154;SDS011;566;48.414;9.118;2022-11-15T10:49:12;15.57;;;6.57;;
1154;SDS011;566;48.414;9.118;2022-11-15T10:51:49;15.60;;;5.93;;
1154;SDS011;566;48.414;9.118;2022-11-15T10:54:23;13.07;;;6.15;;
1154;SDS011;566;48.414;9.118;2022-11-15T10:56:54;12.73;;;6.47;;
1154;SDS011;566;48.414;9.118;2022-11-15T10:59:29;11.20;;;6.03;;
1154;SDS011;566;48.414;9.118;2022-11-15T11:01:56;10.93;;;5.63;;
1154;SDS011;566;48.414;9.118;2022-11-15T11:04:23;12.63;;;6.03;;
1154;SDS011;566;48.414;9.118;2022-11-15T11:06:50;15.23;;;6.95;;
1154;SDS011;566;48.414;9.118;2022-11-15T11:09:36;12.77;;;6.03;;
1154;SDS011;566;48.414;9.118;2022-11-15T11:12:05;16.38;;;8.55;;
1154;SDS011;566;48.414;9.118;2022-11-15T11:14:35;16.92;;;7.68;;
1154;SDS011;566;48.414;9.118;2022-11-15T11:17:09;13.70;;;8.18;;
1154;SDS011;566;48.414;9.118;2022-11-15T11:19:40;16.02;;;8.32;;
1154;SDS011;566;48.414;9.118;2022-11-15T11:30:32;16.73;;;7.57;;
1154;SDS011;566;48.414;9.118;2022-11-15T11:33:19;14.50;;;6.68;;
1154;SDS011;566;48.414;9.118;2022-11-15T11:35:50;11.35;;;5.55;;
1154;SDS011;566;48.414;9.118;2022-11-15T11:52:18;8.63;;;5.10;;
1154;SDS011;566;48.414;9.118;2022-11-15T11:55:44;9.23;;;5.20;;
1154;SDS011;566;48.414;9.118;2022-11-15T12:00:33;10.68;;;4.93;;
1154;SDS011;566;48.414;9.118;2022-11-15T12:06:04;7.18;;;3.60;;
1154;SDS011;566;48.414;9.118;2022-11-15T12:12:10;6.28;;;2.40;;
1154;SDS011;566;48.414;9.118;2022-11-15T12:17:36;6.18;;;1.80;;
1154;SDS011;566;48.414;9.118;2022-11-15T12:20:04;5.38;;;2.05;;
1154;SDS011;566;48.414;9.118;2022-11-15T12:23:25;7.20;;;3.63;;
1154;SDS011;566;48.414;9.118;2022-11-15T12:28:24;8.15;;;6.10;;
1154;SDS011;566;48.414;9.118;2022-11-15T12:33:43;3.95;;;1.65;;
1154;SDS011;566;48.414;9.118;2022-11-15T12:36:12;4.93;;;2.80;;
1154;SDS011;566;48.414;9.118;2022-11-15T12:38:59;5.78;;;2.60;;
1154;SDS011;566;48.414;9.118;2022-11-15T12:41:42;4.65;;;1.75;;
1154;SDS011;566;48.414;9.118;2022-11-15T12:47:02;3.58;;;1.63;;
1154;SDS011;566;48.414;9.118;2022-11-15T13:02:33;4.30;;;1.70;;
1154;SDS011;566;48.414;9.118;2022-11-15T13:05:57;4.22;;;1.60;;
1154;SDS011;566;48.414;9.118;2022-11-15T13:07:58;2.40;;;1.05;;
1154;SDS011;566;48.414;9.118;2022-11-15T13:13:01;3.05;;;1.00;;
1154;SDS011;566;48.414;9.118;2022-11-15T13:18:38;4.57;;;1.02;;
1154;SDS011;566;48.414;9.118;2022-11-15T13:21:17;3.83;;;1.60;;
1154;SDS011;566;48.414;9.118;2022-11-15T13:24:10;2.75;;;1.23;;
1154;SDS011;566;48.414;9.118;2022-11-15T13:26:40;2.67;;;0.93;;
1154;SDS011;566;48.414;9.118;2022-11-15T13:29:14;2.28;;;1.13;;
1154;SDS011;566;48.414;9.118;2022-11-15T13:31:44;2.60;;;1.20;;
1154;SDS011;566;48.414;9.118;2022-11-15T13:34:22;2.20;;;1.00;;
1154;SDS011;566;48.414;9.118;2022-11-15T13:37:02;3.50;;;1.40;;
1154;SDS011;566;48.414;9.118;2022-11-15T13:41:59;3.95;;;1.20;;
1154;SDS011;566;48.414;9.118;2022-11-15T13:44:26;3.40;;;1.10;;
1154;SDS011;566;48.414;9.118;2022-11-15T13:47:27;2.55;;;1.10;;
1154;SDS011;566;48.414;9.118;2022-11-15T13:49:45;2.92;;;1.40;;
1154;SDS011;566;48.414;9.118;2022-11-15T13:52:12;3.72;;;1.40;;
1154;SDS011;566;48.414;9.118;2022-11-15T13:57:26;2.47;;;1.08;;
1154;SDS011;566;48.414;9.118;2022-11-15T13:59:57;4.32;;;1.17;;
1154;SDS011;566;48.414;9.118;2022-11-15T14:02:32;3.35;;;1.40;;
1154;SDS011;566;48.414;9.118;2022-11-15T14:05:00;4.45;;;1.73;;
1154;SDS011;566;48.414;9.118;2022-11-15T14:07:54;4.50;;;1.50;;
1154;SDS011;566;48.414;9.118;2022-11-15T14:13:38;2.47;;;1.00;;
1154;SDS011;566;48.414;9.118;2022-11-15T14:16:19;3.90;;;1.40;;
1154;SDS011;566;48.414;9.118;2022-11-15T14:18:49;4.72;;;1.35;;
1154;SDS011;566;48.414;9.118;2022-11-15T14:21:16;10.43;;;6.13;;
1154;SDS011;566;48.414;9.118;2022-11-15T14:23:43;3.45;;;1.60;;
1154;SDS011;566;48.414;9.118;2022-11-15T14:26:28;16.00;;;12.50;;
1154;SDS011;566;48.414;9.118;2022-11-15T14:31:50;4.15;;;2.42;;
1154;SDS011;566;48.414;9.118;2022-11-15T14:34:16;6.50;;;3.85;;
1154;SDS011;566;48.414;9.118;2022-11-15T14:36:42;2.80;;;1.30;;
1154;SDS011;566;48.414;9.118;2022-11-15T14:39:07;2.45;;;0.93;;
1154;SDS011;566;48.414;9.118;2022-11-15T14:41:34;5.38;;;1.48;;
1154;SDS011;566;48.414;9.118;2022-11-15T14:44:04;2.38;;;1.10;;
1154;SDS011;566;48.414;9.118;2022-11-15T14:46:30;10.40;;;1.75;;
1154;SDS011;566;48.414;9.118;2022-11-15T14:48:56;9.20;;;1.80;;
1154;SDS011;566;48.414;9.118;2022-11-15T14:51:22;3.00;;;1.10;;
1154;SDS011;566;48.414;9.118;2022-11-15T14:53:48;6.10;;;2.10;;
1154;SDS011;566;48.414;9.118;2022-11-15T14:56:14;19.42;;;9.43;;
1154;SDS011;566;48.414;9.118;2022-11-15T14:58:41;6.38;;;2.85;;
1154;SDS011;566;48.414;9.118;2022-11-15T15:01:25;14.85;;;2.70;;
1154;SDS011;566;48.414;9.118;2022-11-15T15:03:53;4.22;;;1.27;;
1154;SDS011;566;48.414;9.118;2022-11-15T15:06:22;6.95;;;1.55;;
1154;SDS011;566;48.414;9.118;2022-11-15T15:08:47;6.72;;;1.92;;
1154;SDS011;566;48.414;9.118;2022-11-15T15:11:22;3.08;;;1.40;;
1154;SDS011;566;48.414;9.118;2022-11-15T15:13:50;9.35;;;2.45;;
1154;SDS011;566;48.414;9.118;2022-11-15T15:16:17;7.05;;;2.60;;
1154;SDS011;566;48.414;9.118;2022-11-15T15:18:43;5.05;;;2.83;;
1154;SDS011;566;48.414;9.118;2022-11-15T15:21:22;9.45;;;5.68;;
1154;SDS011;566;48.414;9.118;2022-11-15T15:23:49;8.95;;;6.10;;
1154;SDS011;566;48.414;9.118;2022-11-15T15:26:15;9.02;;;4.75;;
1154;SDS011;566;48.414;9.118;2022-11-15T15:28:41;17.00;;;10.30;;
1154;SDS011;566;48.414;9.118;2022-11-15T15:31:08;11.05;;;5.68;;
1154;SDS011;566;48.414;9.118;2022-11-15T15:33:37;56.25;;;33.78;;
1154;SDS011;566;48.414;9.118;2022-11-15T15:36:03;83.45;;;45.58;;
1154;SDS011;566;48.414;9.118;2022-11-15T15:38:29;73.97;;;41.88;;
1154;SDS011;566;48.414;9.118;2022-11-15T15:40:55;17.73;;;13.43;;
1154;SDS011;566;48.414;9.118;2022-11-15T15:43:21;5.95;;;3.60;;
1154;SDS011;566;48.414;9.118;2022-11-15T15:45:46;7.22;;;3.60;;
1154;SDS011;566;48.414;9.118;2022-11-15T15:48:13;12.88;;;7.45;;
1154;SDS011;566;48.414;9.118;2022-11-15T15:50:42;19.30;;;8.38;;
1154;SDS011;566;48.414;9.118;2022-11-15T15:53:09;18.92;;;8.52;;
1154;SDS011;566;48.414;9.118;2022-11-15T15:55:38;12.00;;;6.32;;
1154;SDS011;566;48.414;9.118;2022-11-15T15:58:04;10.18;;;4.30;;
1154;SDS011;566;48.414;9.118;2022-11-15T16:00:30;6.95;;;4.55;;
1154;SDS011;566;48.414;9.118;2022-11-15T16:02:59;6.63;;;3.28;;
1154;SDS011;566;48.414;9.118;2022-11-15T16:05:25;5.32;;;2.80;;
1154;SDS011;566;48.414;9.118;2022-11-15T16:07:51;5.57;;;2.75;;
1154;SDS011;566;48.414;9.118;2022-11-15T16:10:24;5.32;;;2.67;;
1154;SDS011;566;48.414;9.118;2022-11-15T16:12:55;5.40;;;2.90;;
1154;SDS011;566;48.414;9.118;2022-11-15T16:15:24;8.88;;;4.40;;
1154;SDS011;566;48.414;9.118;2022-11-15T16:17:55;8.70;;;4.57;;
1154;SDS011;566;48.414;9.118;2022-11-15T16:23:01;5.07;;;3.05;;
1154;SDS011;566;48.414;9.118;2022-11-15T16:25:28;6.20;;;3.10;;
1154;SDS011;566;48.414;9.118;2022-11-15T16:27:55;9.43;;;4.68;;
1154;SDS011;566;48.414;9.118;2022-11-15T16:30:21;7.50;;;4.43;;
1154;SDS011;566;48.414;9.118;2022-11-15T16:32:48;7.95;;;4.18;;
1154;SDS011;566;48.414;9.118;2022-11-15T16:35:14;7.57;;;4.30;;
1154;SDS011;566;48.414;9.118;2022-11-15T16:37:42;13.88;;;6.35;;
1154;SDS011;566;48.414;9.118;2022-11-15T16:40:24;7.07;;;4.57;;
1154;SDS011;566;48.414;9.118;2022-11-15T16:42:55;7.28;;;4.20;;
1154;SDS011;566;48.414;9.118;2022-11-15T16:45:24;11.80;;;5.10;;
1154;SDS011;566;48.414;9.118;2022-11-15T16:47:53;14.40;;;8.63;;
1154;SDS011;566;48.414;9.118;2022-11-15T16:50:20;17.67;;;11.75;;
1154;SDS011;566;48.414;9.118;2022-11-15T16:52:54;8.65;;;4.57;;
1154;SDS011;566;48.414;9.118;2022-11-15T16:55:21;7.35;;;4.35;;
1154;SDS011;566;48.414;9.118;2022-11-15T16:57:48;9.23;;;4.90;;
1154;SDS011;566;48.414;9.118;2022-11-15T17:00:15;7.75;;;4.40;;
1154;SDS011;566;48.414;9.118;2022-11-15T17:02:43;9.10;;;4.90;;
1154;SDS011;566;48.414;9.118;2022-11-15T17:05:10;9.70;;;5.97;;
1154;SDS011;566;48.414;9.118;2022-11-15T17:07:39;10.15;;;6.03;;
1154;SDS011;566;48.414;9.118;2022-11-15T17:10:06;9.68;;;5.38;;
1154;SDS011;566;48.414;9.118;2022-11-15T17:12:34;17.40;;;11.63;;
1154;SDS011;566;48.414;9.118;2022-11-15T17:15:00;12.48;;;7.15;;
1154;SDS011;566;48.414;9.118;2022-11-15T17:17:26;18.67;;;10.30;;
1154;SDS011;566;48.414;9.118;2022-11-15T17:19:52;10.48;;;6.25;;
1154;SDS011;566;48.414;9.118;2022-11-15T17:22:21;9.75;;;5.38;;
1154;SDS011;566;48.414;9.118;2022-11-15T17:24:47;8.90;;;5.30;;
1154;SDS011;566;48.414;9.118;2022-11-15T17:27:12;8.07;;;4.85;;
1154;SDS011;566;48.414;9.118;2022-11-15T17:29:39;10.15;;;7.15;;
1154;SDS011;566;48.414;9.118;2022-11-15T17:32:05;7.50;;;4.68;;
1154;SDS011;566;48.414;9.118;2022-11-15T17:34:31;9.45;;;5.85;;
1154;SDS011;566;48.414;9.118;2022-11-15T17:36:57;9.20;;;6.18;;
1154;SDS011;566;48.414;9.118;2022-11-15T17:39:22;8.50;;;5.07;;
1154;SDS011;566;48.414;9.118;2022-11-15T17:41:49;11.02;;;4.97;;
1154;SDS011;566;48.414;9.118;2022-11-15T17:44:15;9.88;;;4.90;;
1154;SDS011;566;48.414;9.118;2022-11-15T17:46:41;8.88;;;5.05;;
1154;SDS011;566;48.414;9.118;2022-11-15T17:49:07;11.38;;;6.32;;
1154;SDS011;566;48.414;9.118;2022-11-15T17:51:33;9.23;;;5.30;;
1154;SDS011;566;48.414;9.118;2022-11-15T17:53:59;10.43;;;5.28;;
1154;SDS011;566;48.414;9.118;2022-11-15T17:56:25;11.95;;;6.00;;
1154;SDS011;566;48.414;9.118;2022-11-15T17:58:53;8.93;;;5.10;;
1154;SDS011;566;48.414;9.118;2022-11-15T18:01:22;12.65;;;5.60;;
1154;SDS011;566;48.414;9.118;2022-11-15T18:03:50;8.77;;;4.45;;